Time;durP1;ratioP1;P1;durP2;ratioP2;P2;SDS_P1;SDS_P2;PMS_P1;PMS_P2;Temp;Humidity;BMP_temperature;BMP_pressure;BME280_temperature;BME280_humidity;BME280_pressure;Samples;Min_cycle;Max_cycle;Signal;HPM_P1;HPM_P2
2023/09/29 00:00:19;;;;;;;;;3.33;3.33;;;;;25.52;100.00;100939.56;2111788;27;46823;-60
2023/09/29 00:01:20;;;;;;;;;4.00;4.00;;;;;25.51;100.00;100937.84;2110218;27;46394;-60
2023/09/29 00:02:20;;;;;;;;;3.00;3.00;;;;;25.52;100.00;100947.72;2113677;27;46302;-60
2023/09/29 00:03:20;;;;;;;;;4.00;4.00;;;;;25.50;100.00;100942.41;2113006;27;46175;-61
2023/09/29 00:04:21;;;;;;;;;3.00;3.00;;;;;25.51;100.00;100943.25;2103922;28;46371;-61
2023/09/29 00:05:21;;;;;;;;;4.00;4.00;;;;;25.51;100.00;100937.84;2075517;28;46392;-60
2023/09/29 00:06:22;;;;;;;;;2.67;2.00;;;;;25.51;100.00;100940.56;2084308;28;46372;-61
2023/09/29 00:07:22;;;;;;;;;5.00;3.33;;;;;25.51;100.00;100940.56;2087329;28;46270;-61
2023/09/29 00:08:22;;;;;;;;;4.00;4.00;;;;;25.51;100.00;100932.41;2082180;28;46689;-60
2023/09/29 00:09:23;;;;;;;;;4.67;3.67;;;;;25.49;100.00;100937.09;2085943;28;46184;-60
2023/09/29 00:10:23;;;;;;;;;4.33;4.33;;;;;25.48;100.00;100941.66;2084659;28;47026;-59
2023/09/29 00:11:24;;;;;;;;;3.00;3.00;;;;;25.48;100.00;100943.53;2087404;28;46467;-59
2023/09/29 00:12:24;;;;;;;;;3.00;3.00;;;;;25.47;100.00;100941.78;2081812;28;46313;-61
2023/09/29 00:13:24;;;;;;;;;5.00;4.00;;;;;25.47;100.00;100942.66;2079035;28;46296;-61
2023/09/29 00:14:25;;;;;;;;;2.67;2.67;;;;;25.48;100.00;100943.53;2087013;28;47196;-62
2023/09/29 00:15:26;;;;;;;;;4.25;3.00;;;;;25.46;100.00;100935.50;2087012;28;46526;-61
2023/09/29 00:16:26;;;;;;;;;4.00;2.67;;;;;25.46;100.00;100935.50;2081639;28;46238;-61
2023/09/29 00:17:26;;;;;;;;;3.00;3.00;;;;;25.45;100.00;100936.47;2085940;28;46650;-62
2023/09/29 00:18:27;;;;;;;;;3.67;3.33;;;;;25.42;100.00;100927.72;2087491;28;46454;-61
2023/09/29 00:19:27;;;;;;;;;3.33;3.33;;;;;25.42;100.00;100930.44;2083326;28;46342;-60
2023/09/29 00:20:29;;;;;;;;;5.67;3.33;;;;;25.42;100.00;100930.44;2078870;28;46050;-62
2023/09/29 00:21:29;;;;;;;;;3.00;3.00;;;;;25.39;100.00;100923.38;2078870;28;46771;-62
2023/09/29 00:22:30;;;;;;;;;6.00;5.67;;;;;25.39;100.00;100928.81;2084340;28;46863;-62
2023/09/29 00:23:30;;;;;;;;;3.00;3.00;;;;;25.40;100.00;100929.69;2087110;28;46739;-61
2023/09/29 00:24:31;;;;;;;;;4.67;4.67;;;;;25.40;100.00;100930.53;2081121;28;46654;-62
2023/09/29 00:25:31;;;;;;;;;3.00;3.00;;;;;25.40;100.00;100930.53;2083904;28;46391;-59
2023/09/29 00:26:31;;;;;;;;;5.00;4.00;;;;;25.40;100.00;100926.97;2079998;28;46498;-62
2023/09/29 00:27:32;;;;;;;;;4.00;4.00;;;;;25.39;100.00;100920.66;2087346;28;46616;-61
2023/09/29 00:28:32;;;;;;;;;4.33;4.33;;;;;25.39;100.00;100920.66;2086832;28;46458;-59
2023/09/29 00:29:33;;;;;;;;;3.33;3.33;;;;;25.37;100.00;100916.34;2087106;28;46233;-62
2023/09/29 00:30:33;;;;;;;;;3.33;3.33;;;;;25.37;100.00;100925.34;2073700;28;46506;-62
2023/09/29 00:31:34;;;;;;;;;3.00;3.00;;;;;25.35;100.00;100919.19;2063097;28;46754;-61
2023/09/29 00:32:34;;;;;;;;;2.33;2.33;;;;;25.34;100.00;100912.03;2079117;28;46541;-61
2023/09/29 00:33:35;;;;;;;;;3.00;3.00;;;;;25.34;100.00;100928.31;2086466;28;46214;-61
2023/09/29 00:34:36;;;;;;;;;4.67;3.33;;;;;25.34;100.00;100922.91;2083816;28;46181;-57
2023/09/29 00:35:37;;;;;;;;;4.00;4.00;;;;;25.37;100.00;100928.06;2082571;28;46821;-61
2023/09/29 00:36:38;;;;;;;;;4.67;4.67;;;;;25.38;100.00;100915.34;2087502;27;46417;-62
2023/09/29 00:37:40;;;;;;;;;6.75;6.75;;;;;25.38;100.00;100924.38;2109197;27;46504;-61
2023/09/29 00:38:40;;;;;;;;;3.25;3.25;;;;;25.38;100.00;100916.22;2107074;27;46597;-62
2023/09/29 00:39:41;;;;;;;;;3.67;3.00;;;;;25.37;100.00;100917.22;2109283;27;46434;-62
2023/09/29 00:40:41;;;;;;;;;5.00;5.00;;;;;25.37;100.00;100919.94;2111431;27;46092;-58
2023/09/29 00:41:41;;;;;;;;;4.00;4.00;;;;;25.36;100.00;100917.34;2106189;27;46077;-62
2023/09/29 00:42:43;;;;;;;;;3.67;3.67;;;;;25.38;100.00;100926.22;2109487;27;46236;-60
2023/09/29 00:43:43;;;;;;;;;4.50;4.50;;;;;25.33;100.00;100923.88;2101124;28;46684;-61
2023/09/29 00:44:44;;;;;;;;;4.00;4.00;;;;;25.31;100.00;100922.28;2104074;28;46484;-63
2023/09/29 00:45:47;;;;;;;;;4.00;4.00;;;;;25.35;100.00;100919.19;2111608;27;46340;-61
2023/09/29 00:46:48;;;;;;;;;6.00;6.00;;;;;25.35;100.00;100919.19;2108389;27;46477;-62
2023/09/29 00:47:56;;;;;;;;;5.00;4.00;;;;;25.35;100.00;100915.59;2105445;27;46418;-59
2023/09/29 00:48:59;;;;;;;;;3.00;3.00;;;;;25.34;100.00;100916.59;2109865;27;46341;-62
2023/09/29 00:49:59;;;;;;;;;4.25;4.00;;;;;25.34;100.00;100928.31;2113560;27;46641;-61
2023/09/29 00:51:01;;;;;;;;;10.00;8.33;;;;;25.43;100.00;100924.03;2100430;27;46329;-61
2023/09/29 00:52:02;;;;;;;;;6.00;6.00;;;;;25.46;100.00;100919.19;2102874;28;46658;-61
2023/09/29 00:53:11;;;;;;;;;5.00;5.00;;;;;25.39;100.00;100917.94;2108364;27;46289;-59
2023/09/29 00:54:12;;;;;;;;;6.75;6.75;;;;;25.39;100.00;100926.09;2105371;27;46694;-63
2023/09/29 00:55:15;;;;;;;;;6.33;5.67;;;;;25.38;100.00;100921.66;2106174;27;47055;-62
2023/09/29 00:56:16;;;;;;;;;4.00;3.00;;;;;25.37;100.00;100921.78;2110719;27;46699;-62
2023/09/29 00:57:17;;;;;;;;;7.33;6.00;;;;;25.38;100.00;100916.22;2114122;27;46934;-61
2023/09/29 00:58:18;;;;;;;;;7.00;5.00;;;;;25.39;100.00;100907.06;2109213;27;46549;-59
2023/09/29 00:59:18;;;;;;;;;4.25;4.25;;;;;25.39;100.00;100908.94;2114535;27;46358;-62
2023/09/29 01:00:29;;;;;;;;;4.00;4.00;;;;;25.40;100.00;100908.81;2111512;27;47021;-61
2023/09/29 01:01:30;;;;;;;;;8.25;7.50;;;;;25.40;100.00;100908.81;2112835;27;46561;-62
2023/09/29 01:02:31;;;;;;;;;6.00;5.75;;;;;25.40;100.00;100900.66;2108624;27;46869;-62
2023/09/29 01:03:31;;;;;;;;;4.33;4.33;;;;;25.40;100.00;100899.78;2107765;27;45971;-61
2023/09/29 01:04:31;;;;;;;;;3.67;3.67;;;;;25.40;100.00;100894.34;2110118;27;46682;-59
2023/09/29 01:05:41;;;;;;;;;6.00;6.00;;;;;25.41;100.00;100899.69;2106295;27;46961;-61
2023/09/29 01:06:42;;;;;;;;;5.00;4.00;;;;;25.40;100.00;100891.63;2114471;27;47060;-62
2023/09/29 01:07:43;;;;;;;;;3.00;3.00;;;;;25.39;100.00;100888.06;2114213;27;46565;-61
2023/09/29 01:08:44;;;;;;;;;4.50;4.50;;;;;25.38;100.00;100883.63;2106384;27;46327;-60
2023/09/29 01:09:45;;;;;;;;;4.00;4.00;;;;;25.38;100.00;100883.63;2109249;27;46886;-60
2023/09/29 01:10:46;;;;;;;;;3.50;3.00;;;;;25.38;100.00;100882.75;2114066;27;46589;-61
2023/09/29 01:11:49;;;;;;;;;3.50;3.50;;;;;25.35;100.00;100877.56;2114705;27;46074;-60
2023/09/29 01:12:49;;;;;;;;;6.50;5.25;;;;;25.34;100.00;100876.72;2114337;27;46246;-59
2023/09/29 01:13:51;;;;;;;;;4.00;4.00;;;;;25.33;100.00;100876.84;2108667;27;46690;-61
2023/09/29 01:14:51;;;;;;;;;5.25;4.50;;;;;25.33;100.00;100874.13;2111252;27;46408;-61
2023/09/29 01:15:54;;;;;;;;;3.33;3.33;;;;;25.31;100.00;100873.38;2114479;27;46699;-60
2023/09/29 01:16:55;;;;;;;;;4.00;4.00;;;;;25.31;100.00;100873.38;2114572;27;47117;-60
2023/09/29 01:17:55;;;;;;;;;13.00;11.00;;;;;25.30;100.00;100866.22;2114800;27;46463;-61
2023/09/29 01:18:55;;;;;;;;;7.67;7.67;;;;;25.29;100.00;100870.81;2114592;27;46078;-61
2023/09/29 01:19:56;;;;;;;;;8.67;7.67;;;;;25.30;100.00;100866.22;2114925;27;46889;-62
2023/09/29 01:20:56;;;;;;;;;4.33;4.33;;;;;25.29;100.00;100870.81;2114714;27;45604;-62
2023/09/29 01:21:57;;;;;;;;;7.33;7.33;;;;;25.31;100.00;100876.09;2114442;27;46587;-62
2023/09/29 01:23:00;;;;;;;;;7.00;5.00;;;;;25.37;100.00;100879.16;2114617;27;46888;-63
2023/09/29 01:24:00;;;;;;;;;6.50;6.25;;;;;25.37;100.00;100871.03;2114549;27;46470;-60
2023/09/29 01:25:00;;;;;;;;;4.00;4.00;;;;;25.37;100.00;100875.59;2114575;27;46634;-61
2023/09/29 01:26:05;;;;;;;;;3.67;3.67;;;;;25.38;100.00;100880.03;2114659;27;46425;-61
2023/09/29 01:27:06;;;;;;;;;5.25;5.25;;;;;25.38;100.00;100877.31;2114130;27;46382;-62
2023/09/29 01:28:08;;;;;;;;;6.50;4.50;;;;;25.37;100.00;100873.75;2114315;27;46492;-62
2023/09/29 01:29:08;;;;;;;;;4.25;3.00;;;;;25.35;100.00;100873.00;2109883;27;46524;-63
2023/09/29 01:30:13;;;;;;;;;4.00;4.00;;;;;25.36;100.00;100873.88;2117224;27;46201;-63
2023/09/29 01:31:13;;;;;;;;;4.00;4.00;;;;;25.34;100.00;100874.00;2107155;27;46817;-60
2023/09/29 01:32:14;;;;;;;;;7.50;7.50;;;;;25.35;100.00;100873.00;2099117;28;46381;-61
2023/09/29 01:33:15;;;;;;;;;4.50;4.50;;;;;25.35;100.00;100875.72;2097051;28;46592;-63
2023/09/29 01:34:15;;;;;;;;;3.00;3.00;;;;;25.35;100.00;100869.44;2105765;27;46600;-62
2023/09/29 01:35:23;;;;;;;;;4.00;4.00;;;;;25.35;100.00;100867.56;2114134;27;46597;-62
2023/09/29 01:36:24;;;;;;;;;4.00;3.75;;;;;25.34;100.00;100878.56;2114084;27;46367;-62
2023/09/29 01:37:25;;;;;;;;;2.75;2.75;;;;;25.35;100.00;100883.00;2107244;27;47008;-63
2023/09/29 01:38:27;;;;;;;;;6.80;6.20;;;;;25.36;100.00;100876.59;2109931;27;46806;-62
2023/09/29 01:39:27;;;;;;;;;9.00;6.60;;;;;25.35;100.00;100878.44;2114208;27;46994;-61
2023/09/29 01:40:28;;;;;;;;;9.00;8.25;;;;;25.44;100.00;100879.56;2114247;27;46608;-62
2023/09/29 01:41:29;;;;;;;;;7.80;6.60;;;;;25.41;100.00;100877.97;2114506;27;46280;-63
2023/09/29 01:42:30;;;;;;;;;6.00;6.00;;;;;25.36;100.00;100876.59;2114343;27;46262;-62
2023/09/29 01:43:31;;;;;;;;;6.00;6.00;;;;;25.37;100.00;100878.31;2114562;27;46228;-62
2023/09/29 01:44:32;;;;;;;;;5.50;4.50;;;;;25.31;100.00;100873.38;2110797;27;46444;-61
2023/09/29 01:45:33;;;;;;;;;3.50;3.50;;;;;25.28;100.00;100873.59;2113944;27;46254;-62
2023/09/29 01:46:33;;;;;;;;;5.00;5.00;;;;;25.27;100.00;100877.31;2114544;27;46530;-60
2023/09/29 01:47:38;;;;;;;;;9.75;8.25;;;;;25.26;100.00;100879.16;2114435;27;46272;-61
2023/09/29 01:48:38;;;;;;;;;6.00;6.00;;;;;25.24;100.00;100876.59;2095874;28;46400;-63
2023/09/29 01:49:39;;;;;;;;;4.00;4.00;;;;;25.21;100.00;100882.28;2096934;27;45686;-63
2023/09/29 01:50:40;;;;;;;;;4.00;4.00;;;;;25.23;100.00;100887.56;2114331;27;46429;-61
2023/09/29 01:51:40;;;;;;;;;7.75;7.00;;;;;25.23;100.00;100879.44;2105269;28;46964;-61
2023/09/29 01:52:41;;;;;;;;;7.33;7.00;;;;;25.24;100.00;100883.88;2105270;28;46818;-61
2023/09/29 01:53:42;;;;;;;;;5.75;4.25;;;;;25.24;100.00;100886.59;2105268;28;46623;-62
2023/09/29 01:54:42;;;;;;;;;4.25;4.25;;;;;25.22;100.00;100886.72;2096215;28;46608;-60
2023/09/29 01:55:43;;;;;;;;;4.33;3.67;;;;;25.22;100.00;100885.84;2099278;27;46919;-62
2023/09/29 01:56:43;;;;;;;;;5.00;5.00;;;;;25.14;100.00;100889.16;2108741;27;47239;-62
2023/09/29 01:57:44;;;;;;;;;5.00;5.00;;;;;25.21;100.00;100884.13;2111109;27;46751;-62
2023/09/29 01:58:44;;;;;;;;;3.00;3.00;;;;;25.21;100.00;100882.28;2113985;27;46572;-61
2023/09/29 01:59:45;;;;;;;;;4.67;4.67;;;;;25.20;100.00;100883.25;2114425;27;46237;-62
2023/09/29 02:00:46;;;;;;;;;5.75;5.75;;;;;25.20;100.00;100876.97;2110856;27;46405;-61
2023/09/29 02:01:46;;;;;;;;;5.75;5.00;;;;;25.20;100.00;100883.25;2114433;27;47161;-62
2023/09/29 02:02:47;;;;;;;;;9.25;7.00;;;;;25.21;100.00;100874.13;2113947;27;46347;-62
2023/09/29 02:03:48;;;;;;;;;4.25;4.25;;;;;25.21;100.00;100875.97;2114322;27;46597;-61
2023/09/29 02:04:48;;;;;;;;;4.00;4.00;;;;;25.21;100.00;100881.41;2113005;27;46427;-61
2023/09/29 02:05:49;;;;;;;;;5.00;5.00;;;;;25.21;100.00;100881.41;2113760;27;46175;-60
2023/09/29 02:06:49;;;;;;;;;3.00;3.00;;;;;25.20;100.00;100876.97;2105396;28;46776;-62
2023/09/29 02:07:50;;;;;;;;;2.33;2.33;;;;;25.21;100.00;100879.56;2113655;27;46700;-61
2023/09/29 02:08:51;;;;;;;;;4.00;4.00;;;;;25.20;100.00;100871.53;2114140;27;46471;-62
2023/09/29 02:09:51;;;;;;;;;3.00;3.00;;;;;25.19;100.00;100867.09;2114539;27;46830;-61
2023/09/29 02:10:52;;;;;;;;;4.33;4.33;;;;;25.18;100.00;100873.50;2114236;27;46293;-62
2023/09/29 02:11:53;;;;;;;;;4.00;4.00;;;;;25.18;100.00;100876.22;2105141;28;46573;-62
2023/09/29 02:12:56;;;;;;;;;4.50;4.25;;;;;25.17;100.00;100869.94;2105371;27;46638;-61
2023/09/29 02:13:57;;;;;;;;;7.80;7.20;;;;;25.00;100.00;100873.06;2113703;27;46330;-62
2023/09/29 02:14:57;;;;;;;;;8.00;8.00;;;;;25.01;100.00;100877.56;2113940;27;46803;-60
2023/09/29 02:15:58;;;;;;;;;4.00;4.00;;;;;25.00;100.00;100872.22;2109722;27;46522;-62
2023/09/29 02:16:58;;;;;;;;;5.67;5.67;;;;;25.11;100.00;100874.97;2112344;27;46826;-62
2023/09/29 02:17:58;;;;;;;;;5.00;5.00;;;;;25.00;100.00;100875.78;2105487;27;46962;-62
2023/09/29 02:19:00;;;;;;;;;4.00;4.00;;;;;25.12;100.00;100868.56;2109963;27;46683;-62
2023/09/29 02:20:25;;;;;;;;;3.75;3.75;;;;;25.16;100.00;100872.78;2114125;27;46518;-62
2023/09/29 02:21:25;;;;;;;;;4.25;4.25;;;;;25.18;100.00;100887.09;2113670;27;46468;-62
2023/09/29 02:22:25;;;;;;;;;4.00;4.00;;;;;25.18;100.00;100881.66;2114446;27;46756;-61
2023/09/29 02:23:26;;;;;;;;;1.00;1.00;;;;;25.17;100.00;100880.78;2113481;27;46584;-61
2023/09/29 02:24:26;;;;;;;;;3.00;3.00;;;;;25.22;100.00;100883.13;2108007;27;46318;-58
2023/09/29 02:25:27;;;;;;;;;4.00;3.00;;;;;25.18;100.00;100887.09;2114175;27;45901;-61
2023/09/29 02:26:29;;;;;;;;;4.67;4.67;;;;;25.15;100.00;100885.47;2114099;27;46633;-61
2023/09/29 02:27:29;;;;;;;;;3.25;2.00;;;;;25.15;100.00;100890.03;2113987;27;46862;-62
2023/09/29 02:28:32;;;;;;;;;4.00;4.00;;;;;25.16;100.00;100891.78;2114673;27;46559;-62
2023/09/29 02:29:33;;;;;;;;;4.00;4.00;;;;;25.16;100.00;100889.94;2114215;27;46524;-62
2023/09/29 02:30:33;;;;;;;;;4.00;4.00;;;;;25.14;100.00;100894.59;2118783;27;46277;-59
2023/09/29 02:31:36;;;;;;;;;2.00;2.00;;;;;25.15;100.00;100885.47;2120625;27;46305;-59
2023/09/29 02:32:37;;;;;;;;;3.00;3.00;;;;;25.14;100.00;100881.03;2113170;27;46263;-59
2023/09/29 02:33:39;;;;;;;;;3.50;3.00;;;;;25.14;100.00;100889.16;2112567;27;46362;-62
2023/09/29 02:34:39;;;;;;;;;3.25;3.25;;;;;25.16;100.00;100883.63;2113197;27;46702;-61
2023/09/29 02:35:39;;;;;;;;;2.00;2.00;;;;;25.15;100.00;100893.59;2107886;27;45775;-62
2023/09/29 02:36:40;;;;;;;;;3.67;3.67;;;;;25.14;100.00;100896.44;2106976;27;46494;-62
2023/09/29 02:37:41;;;;;;;;;4.00;4.00;;;;;25.14;100.00;100891.03;2114641;27;46421;-59
2023/09/29 02:38:41;;;;;;;;;4.00;4.00;;;;;25.23;100.00;100891.16;2114924;27;46770;-62
2023/09/29 02:39:42;;;;;;;;;2.00;2.00;;;;;25.24;100.00;100892.03;2113969;27;46418;-62
2023/09/29 02:40:42;;;;;;;;;2.00;2.00;;;;;25.27;100.00;100890.91;2104933;28;46543;-60
2023/09/29 02:41:44;;;;;;;;;5.00;5.00;;;;;25.26;100.00;100897.31;2096334;28;46503;-62
2023/09/29 02:42:44;;;;;;;;;3.00;3.00;;;;;25.25;100.00;100893.75;2105086;27;46914;-62
2023/09/29 02:43:44;;;;;;;;;2.00;2.00;;;;;25.27;100.00;100891.75;2105431;27;46818;-62
2023/09/29 02:44:45;;;;;;;;;5.00;3.33;;;;;25.26;100.00;100886.47;2108337;27;46669;-62
2023/09/29 02:45:45;;;;;;;;;3.00;3.00;;;;;25.27;100.00;100890.91;2114229;27;46436;-62
2023/09/29 02:46:45;;;;;;;;;2.67;2.67;;;;;25.28;100.00;100887.19;2114086;27;46373;-61
2023/09/29 02:47:47;;;;;;;;;2.33;2.33;;;;;25.29;100.00;100886.25;2113927;27;46611;-61
2023/09/29 02:48:48;;;;;;;;;3.00;3.00;;;;;25.29;100.00;100880.81;2114276;27;46380;-59
2023/09/29 02:49:49;;;;;;;;;3.25;3.25;;;;;25.28;100.00;100882.63;2112830;27;46553;-62
2023/09/29 02:50:49;;;;;;;;;2.00;2.00;;;;;25.29;100.00;100886.25;2114198;27;46377;-61
2023/09/29 02:51:49;;;;;;;;;2.67;2.67;;;;;25.29;100.00;100889.81;2113818;27;46304;-62
2023/09/29 02:52:51;;;;;;;;;3.00;3.00;;;;;25.31;100.00;100886.97;2113967;27;47107;-61
2023/09/29 02:53:54;;;;;;;;;3.25;3.25;;;;;25.29;100.00;100884.38;2110653;27;46533;-61
2023/09/29 02:54:54;;;;;;;;;2.00;2.00;;;;;25.30;100.00;100886.09;2098920;28;46426;-62
2023/09/29 02:55:55;;;;;;;;;2.67;2.67;;;;;25.31;100.00;100881.53;2101539;28;46838;-59
2023/09/29 02:56:56;;;;;;;;;2.00;2.00;;;;;25.30;100.00;100886.09;2096384;28;46788;-58
2023/09/29 02:57:56;;;;;;;;;2.00;2.00;;;;;25.30;100.00;100888.81;2104962;28;46481;-61
2023/09/29 02:58:57;;;;;;;;;2.67;2.00;;;;;25.31;100.00;100881.53;2113895;27;45151;-62
2023/09/29 02:59:57;;;;;;;;;1.67;1.67;;;;;25.33;100.00;100880.41;2113737;27;46234;-60
2023/09/29 03:00:57;;;;;;;;;3.00;3.00;;;;;25.34;100.00;100892.16;2113925;27;46525;-60
2023/09/29 03:01:58;;;;;;;;;3.33;2.00;;;;;25.35;100.00;100892.03;2104988;28;46306;-61
2023/09/29 03:02:58;;;;;;;;;2.00;2.00;;;;;25.34;100.00;100882.16;2108573;27;46244;-62
2023/09/29 03:03:59;;;;;;;;;3.33;1.33;;;;;25.34;100.00;100882.16;2113466;27;46002;-62
2023/09/29 03:05:00;;;;;;;;;1.67;1.67;;;;;25.35;100.00;100888.44;2113767;27;46521;-62
2023/09/29 03:06:00;;;;;;;;;3.00;3.00;;;;;25.35;100.00;100886.59;2102908;28;46196;-61
2023/09/29 03:07:01;;;;;;;;;2.00;2.00;;;;;25.35;100.00;100889.31;2102342;28;46592;-61
2023/09/29 03:08:01;;;;;;;;;2.00;2.00;;;;;25.33;100.00;100888.56;2105445;28;46339;-60
2023/09/29 03:09:02;;;;;;;;;1.33;1.33;;;;;25.33;100.00;100894.00;2112678;27;45948;-61
2023/09/29 03:10:05;;;;;;;;;1.33;1.33;;;;;25.33;100.00;100891.28;2114100;27;46204;-61
2023/09/29 03:11:06;;;;;;;;;0.50;0.50;;;;;25.33;100.00;100899.44;2113530;27;46394;-61
2023/09/29 03:12:07;;;;;;;;;1.00;1.00;;;;;25.21;100.00;100885.00;2117755;27;46511;-61
2023/09/29 03:13:07;;;;;;;;;0.67;0.67;;;;;25.20;100.00;100880.53;2114338;27;46880;-61
2023/09/29 03:14:08;;;;;;;;;0.00;0.00;;;;;25.18;100.00;100882.53;2113616;27;45112;-61
2023/09/29 03:15:15;;;;;;;;;1.75;1.75;;;;;25.18;100.00;100881.66;2113975;27;46847;-62
2023/09/29 03:16:17;;;;;;;;;1.25;1.25;;;;;25.27;100.00;100888.19;2105031;28;46915;-61
2023/09/29 03:17:17;;;;;;;;;1.25;1.25;;;;;25.26;100.00;100887.31;2106038;27;46536;-60
2023/09/29 03:18:18;;;;;;;;;2.33;1.33;;;;;25.24;100.00;100887.44;2113370;27;45984;-61
2023/09/29 03:19:19;;;;;;;;;3.00;1.00;;;;;25.25;100.00;100885.59;2113885;27;46378;-62
2023/09/29 03:20:19;;;;;;;;;1.00;1.00;;;;;25.24;100.00;100884.72;2113493;27;46400;-61
2023/09/29 03:21:19;;;;;;;;;2.00;2.00;;;;;25.23;100.00;100877.56;2113799;27;46348;-62
2023/09/29 03:22:20;;;;;;;;;1.33;1.33;;;;;25.25;100.00;100877.44;2113632;27;46800;-62
2023/09/29 03:23:20;;;;;;;;;1.33;1.33;;;;;25.26;100.00;100875.59;2107681;27;46570;-60
2023/09/29 03:24:21;;;;;;;;;2.00;2.00;;;;;25.26;100.00;100872.88;2112364;27;46890;-62
2023/09/29 03:25:22;;;;;;;;;1.00;1.00;;;;;25.26;100.00;100875.59;2113596;27;46401;-61
2023/09/29 03:26:22;;;;;;;;;1.00;1.00;;;;;25.24;100.00;100876.59;2113576;27;46644;-63
2023/09/29 03:27:23;;;;;;;;;2.00;2.00;;;;;25.24;100.00;100879.28;2113594;27;45629;-62
2023/09/29 03:28:23;;;;;;;;;2.67;1.00;;;;;25.24;100.00;100881.16;2113756;27;46403;-61
2023/09/29 03:29:24;;;;;;;;;2.00;1.33;;;;;25.23;100.00;100876.72;2111468;27;46954;-62
2023/09/29 03:30:25;;;;;;;;;1.67;1.67;;;;;25.22;100.00;100875.84;2115937;27;46718;-61
2023/09/29 03:31:26;;;;;;;;;1.50;1.50;;;;;25.20;100.00;100880.53;2122015;27;47041;-62
2023/09/29 03:32:26;;;;;;;;;2.67;1.67;;;;;25.19;100.00;100878.81;2105854;27;45977;-63
2023/09/29 03:33:27;;;;;;;;;0.33;0.33;;;;;25.19;100.00;100881.53;2105283;28;46413;-62
2023/09/29 03:34:27;;;;;;;;;0.67;0.67;;;;;25.20;100.00;100891.41;2109527;27;46445;-62
2023/09/29 03:35:27;;;;;;;;;1.00;1.00;;;;;25.21;100.00;100882.28;2112089;27;46527;-62
2023/09/29 03:36:30;;;;;;;;;2.00;2.00;;;;;25.20;100.00;100885.97;2105165;28;46785;-65
2023/09/29 03:37:35;;;;;;;;;0.50;0.50;;;;;25.19;100.00;100886.09;2113651;27;46236;-60
2023/09/29 03:38:37;;;;;;;;;2.00;1.00;;;;;25.18;100.00;100887.09;2113497;27;46416;-62
2023/09/29 03:39:38;;;;;;;;;1.00;1.00;;;;;25.19;100.00;100888.81;2112387;27;46946;-63
2023/09/29 03:40:38;;;;;;;;;2.33;2.33;;;;;25.19;100.00;100888.81;2113696;27;46267;-63
2023/09/29 03:41:38;;;;;;;;;0.00;0.00;;;;;25.10;100.00;100884.13;2113385;27;47007;-62
2023/09/29 03:42:42;;;;;;;;;2.33;1.33;;;;;25.09;100.00;100887.81;2113860;27;46379;-63
2023/09/29 03:43:42;;;;;;;;;3.50;2.00;;;;;25.07;100.00;100881.66;2113900;27;46865;-62
2023/09/29 03:44:45;;;;;;;;;0.67;0.67;;;;;25.09;100.00;100871.53;2113905;27;46644;-62
2023/09/29 03:45:46;;;;;;;;;1.25;1.25;;;;;25.07;100.00;100881.66;2113176;27;46360;-62
2023/09/29 03:46:47;;;;;;;;;2.00;2.00;;;;;25.06;100.00;100877.22;2115393;27;46529;-61
2023/09/29 03:47:47;;;;;;;;;0.67;0.67;;;;;25.03;100.00;100872.88;2107622;27;46876;-62
2023/09/29 03:48:47;;;;;;;;;0.00;0.00;;;;;25.01;100.00;100888.41;2107967;27;46164;-61
2023/09/29 03:49:47;;;;;;;;;0.00;0.00;;;;;25.02;100.00;100875.69;2113482;27;46320;-61
2023/09/29 03:50:49;;;;;;;;;2.00;1.00;;;;;25.00;100.00;100886.66;2113489;27;46363;-63
2023/09/29 03:51:51;;;;;;;;;2.00;2.00;;;;;24.98;100.00;100876.91;2113541;27;46282;-63
2023/09/29 03:52:51;;;;;;;;;0.25;0.25;;;;;24.89;100.00;100884.78;2113236;27;46478;-61
2023/09/29 03:53:53;;;;;;;;;1.67;1.00;;;;;24.96;100.00;100879.75;2113010;27;47068;-63
2023/09/29 03:54:53;;;;;;;;;1.75;1.75;;;;;24.97;100.00;100888.75;2110729;27;46709;-61
2023/09/29 03:55:54;;;;;;;;;1.67;1.67;;;;;24.82;100.00;100880.84;2113940;27;46631;-60
2023/09/29 03:56:55;;;;;;;;;2.00;2.00;;;;;24.95;100.00;100886.16;2113673;27;46730;-63
2023/09/29 03:57:55;;;;;;;;;0.67;0.67;;;;;24.93;100.00;100880.00;2104375;28;46418;-63
2023/09/29 03:58:55;;;;;;;;;1.67;1.67;;;;;24.87;100.00;100885.91;2104645;28;46728;-60
2023/09/29 03:59:55;;;;;;;;;1.00;1.00;;;;;24.99;100.00;100887.66;2104297;28;46482;-63
2023/09/29 04:00:56;;;;;;;;;1.67;1.33;;;;;25.00;100.00;100883.06;2104389;28;46237;-63
2023/09/29 04:01:57;;;;;;;;;2.50;2.50;;;;;25.02;100.00;100889.28;2113509;27;46859;-62
2023/09/29 04:02:57;;;;;;;;;4.67;1.33;;;;;25.02;100.00;100890.16;2113732;27;46177;-61
2023/09/29 04:03:57;;;;;;;;;0.33;0.33;;;;;25.02;100.00;100892.84;2113212;27;46184;-61
2023/09/29 04:04:59;;;;;;;;;1.67;1.67;;;;;25.03;100.00;100888.28;2113590;27;46181;-62
2023/09/29 04:05:59;;;;;;;;;2.00;2.00;;;;;25.01;100.00;100888.41;2112969;27;47241;-61
2023/09/29 04:07:00;;;;;;;;;2.00;2.00;;;;;25.00;100.00;100900.22;2107031;27;46133;-62
2023/09/29 04:08:01;;;;;;;;;2.00;1.67;;;;;24.99;100.00;100897.63;2112506;27;46854;-61
2023/09/29 04:09:03;;;;;;;;;2.50;0.75;;;;;24.98;100.00;100898.63;2104685;28;46859;-60
2023/09/29 04:10:05;;;;;;;;;1.00;1.00;;;;;24.97;100.00;100889.63;2104633;27;48052;-61
2023/09/29 04:11:06;;;;;;;;;1.00;1.00;;;;;24.97;100.00;100900.47;2113209;27;46583;-62
2023/09/29 04:12:06;;;;;;;;;4.00;2.00;;;;;24.95;100.00;100903.31;2108790;27;46673;-59
2023/09/29 04:13:06;;;;;;;;;2.00;1.00;;;;;24.95;100.00;100895.19;2113467;27;46403;-60
2023/09/29 04:14:06;;;;;;;;;3.00;1.00;;;;;24.95;100.00;100906.03;2113277;27;46498;-61
2023/09/29 04:15:07;;;;;;;;;1.33;1.00;;;;;24.95;100.00;100908.75;2113492;27;46330;-62
2023/09/29 04:16:09;;;;;;;;;2.00;1.00;;;;;24.94;100.00;100922.44;2113216;27;46419;-60
2023/09/29 04:17:10;;;;;;;;;1.00;1.00;;;;;24.96;100.00;100925.91;2113551;27;46643;-62
2023/09/29 04:18:10;;;;;;;;;3.00;3.00;;;;;24.95;100.00;100929.59;2114920;27;46516;-61
2023/09/29 04:19:12;;;;;;;;;1.00;1.00;;;;;24.94;100.00;100927.88;2114838;27;46372;-61
2023/09/29 04:20:13;;;;;;;;;2.50;2.50;;;;;24.93;100.00;100943.31;2114506;27;46461;-61
2023/09/29 04:21:15;;;;;;;;;1.67;1.33;;;;;24.92;100.00;100946.16;2115624;27;46450;-59
2023/09/29 04:22:16;;;;;;;;;1.25;1.25;;;;;24.90;100.00;100956.22;2105998;28;45619;-61
2023/09/29 04:23:16;;;;;;;;;2.00;2.00;;;;;24.79;100.00;100964.38;2105913;27;46674;-58
2023/09/29 04:24:16;;;;;;;;;2.00;1.33;;;;;24.86;100.00;100960.19;2114847;27;46551;-61
2023/09/29 04:25:17;;;;;;;;;0.00;0.00;;;;;24.91;100.00;100956.16;2115134;27;46528;-61
2023/09/29 04:26:19;;;;;;;;;2.00;1.00;;;;;24.92;100.00;100963.31;2115083;27;46677;-61
2023/09/29 04:27:20;;;;;;;;;1.00;1.00;;;;;24.93;100.00;100959.59;2114534;27;46430;-62
2023/09/29 04:28:20;;;;;;;;;0.67;0.67;;;;;24.94;100.00;100960.47;2110333;27;46886;-61
2023/09/29 04:29:21;;;;;;;;;2.00;1.00;;;;;24.95;100.00;100951.31;2115180;27;46308;-61
2023/09/29 04:30:21;;;;;;;;;3.00;2.00;;;;;24.95;100.00;100956.75;2118209;27;46762;-61
2023/09/29 04:31:22;;;;;;;;;0.67;0.67;;;;;24.95;100.00;100956.75;2123494;27;46771;-61
2023/09/29 04:32:22;;;;;;;;;1.67;1.67;;;;;24.94;100.00;100953.19;2112234;27;46639;-60
2023/09/29 04:33:23;;;;;;;;;2.00;2.00;;;;;24.95;100.00;100957.63;2114908;27;46379;-61
2023/09/29 04:34:23;;;;;;;;;2.67;2.00;;;;;24.94;100.00;100955.03;2105825;28;46276;-61
2023/09/29 04:35:24;;;;;;;;;2.75;2.75;;;;;24.94;100.00;100953.19;2104976;28;45744;-61
2023/09/29 04:36:24;;;;;;;;;2.00;2.00;;;;;25.02;100.00;100952.59;2106766;27;46681;-62
2023/09/29 04:37:24;;;;;;;;;1.00;1.00;;;;;25.05;100.00;100962.38;2114836;27;46332;-62
2023/09/29 04:38:25;;;;;;;;;1.00;1.00;;;;;25.06;100.00;100974.97;2114860;27;46114;-61
2023/09/29 04:39:25;;;;;;;;;2.00;2.00;;;;;24.99;100.00;100968.25;2114075;27;46554;-58
2023/09/29 04:40:25;;;;;;;;;2.33;2.33;;;;;24.94;100.00;100964.03;2114419;27;46169;-60